Time;durP1;ratioP1;P1;durP2;ratioP2;P2;SDS_P1;SDS_P2;PMS_P1;PMS_P2;Temp;Humidity;BMP_temperature;BMP_pressure;BME280_temperature;BME280_humidity;BME280_pressure;Samples;Min_cycle;Max_cycle;Signal;HPM_P1;HPM_P2
2023/06/28 00:02:15;;;;;;;10.10;6.40;;;;;;;21.21;64.78;99529.83;109298;1254;58774;-93
2023/06/28 00:04:42;;;;;;;11.90;6.50;;;;;;;21.24;64.57;99522.07;109303;1254;58793;-93
2023/06/28 00:07:10;;;;;;;7.50;5.70;;;;;;;21.27;64.57;99527.09;109291;1256;58397;-94
2023/06/28 00:09:37;;;;;;;9.70;5.90;;;;;;;21.25;64.36;99528.77;109329;1254;60440;-93
2023/06/28 00:12:04;;;;;;;9.30;6.60;;;;;;;21.17;64.45;99536.92;109366;1255;63795;-93
2023/06/28 00:14:31;;;;;;;7.20;5.30;;;;;;;21.16;64.51;99541.00;109237;1254;58181;-93
2023/06/28 00:17:01;;;;;;;7.80;6.20;;;;;;;21.18;64.31;99540.36;108175;1253;58288;-91
2023/06/28 00:19:28;;;;;;;7.30;5.40;;;;;;;21.19;64.13;99535.64;108097;1254;65148;-92
2023/06/28 00:21:55;;;;;;;7.40;5.50;;;;;;;21.19;64.07;99540.08;108264;1257;60235;-93
2023/06/28 00:24:22;;;;;;;7.40;5.20;;;;;;;21.16;63.69;99544.38;108369;1251;63863;-93
2023/06/28 00:26:49;;;;;;;7.40;5.40;;;;;;;21.11;63.65;99537.40;108328;1254;59354;-93
2023/06/28 00:29:16;;;;;;;8.70;5.40;;;;;;;21.07;63.74;99536.35;107598;1254;59107;-91
2023/06/28 00:31:43;;;;;;;8.50;5.60;;;;;;;21.05;63.50;99538.50;107616;1254;66536;-92
2023/06/28 00:34:09;;;;;;;8.90;5.00;;;;;;;21.03;63.32;99537.85;108079;1254;60679;-91
2023/06/28 00:36:37;;;;;;;7.70;4.90;;;;;;;21.02;63.27;99545.25;108319;1254;64261;-91
2023/06/28 00:39:04;;;;;;;7.00;4.60;;;;;;;21.02;63.01;99543.90;108275;1254;60322;-91
2023/06/28 00:41:32;;;;;;;10.90;4.90;;;;;;;20.97;62.81;99540.25;108120;1252;60493;-91
2023/06/28 00:44:01;;;;;;;8.00;5.30;;;;;;;20.94;62.83;99540.80;108474;1253;65187;-93
2023/06/28 00:46:28;;;;;;;8.40;4.80;;;;;;;20.91;62.69;99536.95;108580;1254;60287;-92
2023/06/28 00:48:55;;;;;;;11.80;4.90;;;;;;;20.87;62.57;99532.07;108643;1252;62656;-92
2023/06/28 00:51:22;;;;;;;7.60;4.90;;;;;;;20.84;62.43;99532.02;108605;1253;58949;-91
2023/06/28 00:53:49;;;;;;;8.70;4.80;;;;;;;20.86;62.53;99525.77;108273;1252;60342;-92
2023/06/28 00:56:16;;;;;;;8.50;4.90;;;;;;;20.87;62.43;99527.55;107932;1253;65361;-93
2023/06/28 00:58:42;;;;;;;6.30;4.30;;;;;;;20.84;62.41;99527.17;108546;1254;61664;-91
2023/06/28 01:01:10;;;;;;;7.50;4.40;;;;;;;20.80;62.46;99524.92;107912;1257;62415;-92
2023/06/28 01:03:37;;;;;;;7.30;4.70;;;;;;;20.75;62.79;99520.98;108566;1254;58998;-92
2023/06/28 01:06:04;;;;;;;7.60;4.80;;;;;;;20.74;62.76;99520.41;108288;1253;60463;-93
2023/06/28 01:08:31;;;;;;;7.00;4.90;;;;;;;20.75;62.72;99516.17;108030;1254;65543;-92
2023/06/28 01:10:59;;;;;;;9.10;5.40;;;;;;;20.75;62.64;99509.56;107949;1254;61560;-94
2023/06/28 01:13:26;;;;;;;6.50;4.60;;;;;;;20.73;62.69;99502.95;107750;1254;62588;-94
2023/06/28 01:15:55;;;;;;;7.80;5.30;;;;;;;20.69;62.93;99506.13;108043;1257;60518;-91
2023/06/28 01:18:23;;;;;;;6.30;4.60;;;;;;;20.67;63.11;99513.62;108029;1254;60298;-94
2023/06/28 01:20:53;;;;;;;5.90;4.30;;;;;;;20.67;63.08;99519.61;107890;1254;64183;-93
2023/06/28 01:23:26;;;;;;;6.80;4.40;;;;;;;20.65;63.05;99519.88;107884;1254;60530;-94
2023/06/28 01:25:53;;;;;;;6.80;4.70;;;;;;;20.63;63.20;99520.92;107917;1253;64099;-92
2023/06/28 01:28:21;;;;;;;7.80;4.20;;;;;;;20.59;63.55;99521.52;107381;1253;59264;-93
2023/06/28 01:30:52;;;;;;;7.00;4.70;;;;;;;20.55;63.56;99519.98;107618;1256;60322;-91
2023/06/28 01:33:19;;;;;;;8.50;4.60;;;;;;;20.50;63.62;99521.09;107812;1254;65279;-93
2023/06/28 01:35:46;;;;;;;7.00;4.00;;;;;;;20.48;63.50;99525.30;107484;1253;61408;-92
2023/06/28 01:38:13;;;;;;;8.60;5.10;;;;;;;20.47;63.37;99523.38;107552;1253;62580;-92
2023/06/28 01:40:40;;;;;;;8.80;5.10;;;;;;;20.46;63.54;99522.64;107737;1254;60385;-92
2023/06/28 01:43:07;;;;;;;7.00;4.80;;;;;;;20.44;63.31;99516.31;108129;1254;60429;-93
2023/06/28 01:45:33;;;;;;;7.10;4.40;;;;;;;20.41;63.56;99524.21;108418;1254;66615;-93
2023/06/28 01:48:01;;;;;;;7.20;4.00;;;;;;;20.36;63.32;99525.70;107997;1252;61801;-93
2023/06/28 01:50:28;;;;;;;6.10;4.30;;;;;;;20.31;63.41;99517.15;108352;1253;74299;-91
2023/06/28 01:52:59;;;;;;;7.80;4.30;;;;;;;20.32;63.44;99517.16;108034;1252;60531;-92
2023/06/28 01:55:27;;;;;;;8.00;4.80;;;;;;;20.34;63.36;99520.27;108313;1252;60347;-93
2023/06/28 01:57:54;;;;;;;7.40;4.60;;;;;;;20.35;63.04;99518.18;107952;1253;65295;-92
2023/06/28 02:00:20;;;;;;;9.00;4.40;;;;;;;20.35;63.07;99518.88;107511;1254;62715;-93
2023/06/28 02:02:50;;;;;;;6.80;4.10;;;;;;;20.35;62.92;99521.30;107609;1254;64353;-93
2023/06/28 02:05:17;;;;;;;9.20;4.70;;;;;;;20.32;62.74;99522.54;107806;1254;60435;-92
2023/06/28 02:07:44;;;;;;;8.40;4.40;;;;;;;20.28;62.75;99520.41;107846;1253;59148;-93
2023/06/28 02:10:16;;;;;;;9.20;4.30;;;;;;;20.29;62.84;99522.83;107479;1254;397261;-93
2023/06/28 02:14:26;;;;;;;6.20;4.30;;;;;;;20.00;63.78;99516.41;102450;1289;601183;-60
2023/06/28 02:16:54;;;;;;;6.90;4.90;;;;;;;20.17;63.05;99520.46;104605;1265;59407;-66
2023/06/28 02:19:22;;;;;;;7.80;4.50;;;;;;;20.15;62.89;99524.08;104790;1264;59333;-57
2023/06/28 02:21:50;;;;;;;7.20;4.40;;;;;;;20.19;62.73;99527.85;104867;1264;62041;-59
2023/06/28 02:24:18;;;;;;;6.30;4.50;;;;;;;20.17;62.64;99524.86;104740;1269;62861;-58
2023/06/28 02:26:46;;;;;;;6.40;4.50;;;;;;;20.16;62.74;99526.80;104731;1267;184584;-60
2023/06/28 02:29:15;;;;;;;7.00;4.80;;;;;;;20.13;62.93;99529.46;104847;1268;59259;-61
2023/06/28 02:31:52;;;;;;;8.40;4.70;;;;;;;20.06;63.19;99529.70;105091;1263;59276;-64
2023/06/28 02:34:28;;;;;;;6.80;4.20;;;;;;;20.14;62.89;99531.27;104304;1261;62039;-60
2023/06/28 02:36:56;;;;;;;10.50;5.10;;;;;;;20.16;62.62;99538.53;104576;1264;60132;-59
2023/06/28 02:39:23;;;;;;;11.70;5.00;;;;;;;20.15;62.76;99542.81;104979;1261;62457;-61
2023/06/28 02:41:51;;;;;;;7.90;4.30;;;;;;;20.15;62.57;99548.81;104848;1261;59778;-60
2023/06/28 02:44:18;;;;;;;9.80;4.50;;;;;;;20.14;62.69;99548.15;104983;1261;59829;-61
2023/06/28 02:46:46;;;;;;;6.70;4.20;;;;;;;20.11;62.61;99544.41;104870;1261;64171;-58
2023/06/28 02:49:13;;;;;;;8.70;4.50;;;;;;;20.07;62.73;99540.64;104892;1264;61329;-58
2023/06/28 02:51:41;;;;;;;10.70;4.90;;;;;;;20.01;62.79;99545.00;104781;1261;62440;-58
2023/06/28 02:54:10;;;;;;;7.20;4.30;;;;;;;19.97;62.94;99544.37;104867;1265;59725;-60
2023/06/28 02:56:38;;;;;;;7.80;4.50;;;;;;;19.96;63.15;99542.53;104943;1266;59652;-57
2023/06/28 02:59:18;;;;;;;9.00;4.80;;;;;;;19.97;63.11;99544.13;104882;1261;64159;-59
2023/06/28 03:01:47;;;;;;;7.20;4.50;;;;;;;19.99;62.93;99543.96;104925;1261;61334;-58
2023/06/28 03:04:14;;;;;;;8.90;4.90;;;;;;;19.97;62.84;99546.26;104885;1264;63735;-60
2023/06/28 03:06:47;;;;;;;7.30;5.10;;;;;;;19.94;62.94;99544.95;104887;1261;59688;-60
2023/06/28 03:09:15;;;;;;;8.50;5.10;;;;;;;19.90;62.88;99545.97;105056;1264;59653;-61
2023/06/28 03:11:42;;;;;;;7.70;4.90;;;;;;;19.88;62.92;99542.85;104801;1266;64136;-62
2023/06/28 03:14:11;;;;;;;9.50;4.50;;;;;;;19.89;62.66;99547.36;105096;1261;61865;-59
2023/06/28 03:16:39;;;;;;;8.60;4.10;;;;;;;19.92;62.61;99547.98;105092;1260;63699;-58
2023/06/28 03:19:07;;;;;;;6.30;4.40;;;;;;;19.94;62.48;99550.40;104961;1266;59656;-59
2023/06/28 03:21:34;;;;;;;7.90;4.30;;;;;;;19.92;62.33;99552.29;105176;1263;59864;-60
2023/06/28 03:24:03;;;;;;;9.10;5.20;;;;;;;19.87;62.26;99554.55;105249;1259;64078;-56
2023/06/28 03:26:31;;;;;;;7.30;4.20;;;;;;;19.83;62.37;99556.80;105130;1260;60083;-58
2023/06/28 03:28:58;;;;;;;6.00;4.30;;;;;;;19.80;62.16;99553.48;105455;1254;63763;-62
2023/06/28 03:31:27;;;;;;;8.90;4.50;;;;;;;19.78;61.86;99548.42;105342;1254;62332;-57
2023/06/28 03:33:55;;;;;;;7.00;4.30;;;;;;;19.78;61.78;99555.15;105538;1255;59704;-58
2023/06/28 03:36:24;;;;;;;6.90;4.20;;;;;;;19.79;61.51;99556.59;105227;1260;64630;-59
2023/06/28 03:38:51;;;;;;;11.70;4.80;;;;;;;19.78;61.34;99557.65;105608;1260;60079;-63
2023/06/28 03:41:19;;;;;;;8.40;5.20;;;;;;;19.74;61.12;99559.27;105457;1255;62468;-62
2023/06/28 03:43:47;;;;;;;7.70;4.60;;;;;;;19.70;61.07;99568.13;105527;1254;59704;-62
2023/06/28 03:46:14;;;;;;;7.10;4.50;;;;;;;19.65;61.04;99568.08;105371;1257;59666;-62
2023/06/28 03:48:42;;;;;;;10.50;4.30;;;;;;;19.58;60.98;99568.91;105341;1255;62860;-58
2023/06/28 03:51:09;;;;;;;8.40;4.00;;;;;;;19.45;61.22;99566.02;105317;1254;60082;-58
2023/06/28 03:53:37;;;;;;;5.90;3.40;;;;;;;19.42;61.12;99564.69;105341;1257;63725;-60
2023/06/28 03:56:04;;;;;;;8.50;4.60;;;;;;;19.40;61.02;99563.66;105321;1255;59698;-61
2023/06/28 03:58:32;;;;;;;8.30;4.10;;;;;;;19.37;61.06;99569.52;105323;1260;59669;-60
2023/06/28 04:01:02;;;;;;;6.20;3.90;;;;;;;19.39;61.00;99564.19;105363;1255;64046;-60
2023/06/28 04:03:29;;;;;;;9.80;4.80;;;;;;;19.37;61.05;99564.75;105179;1255;61951;-60
2023/06/28 04:05:57;;;;;;;8.50;3.90;;;;;;;19.34;61.28;99559.65;105415;1255;63892;-59
2023/06/28 04:08:26;;;;;;;7.00;3.80;;;;;;;19.39;61.05;99567.88;105326;1260;59785;-59
2023/06/28 04:10:54;;;;;;;8.90;4.40;;;;;;;19.44;60.60;99570.73;105483;1256;60916;-61
2023/06/28 04:13:25;;;;;;;5.30;3.70;;;;;;;19.42;60.54;99568.14;105586;1254;64220;-57
2023/06/28 04:15:53;;;;;;;8.20;4.50;;;;;;;19.36;60.74;99569.99;105485;1257;61505;-58
2023/06/28 04:18:21;;;;;;;7.10;4.00;;;;;;;19.29;60.73;99566.48;105314;1257;63833;-57
2023/06/28 04:20:49;;;;;;;7.60;3.70;;;;;;;19.27;60.61;99570.38;105338;1256;59759;-57
2023/06/28 04:23:16;;;;;;;6.10;3.70;;;;;;;19.26;60.35;99565.66;105354;1256;59730;-52
2023/06/28 04:25:44;;;;;;;7.10;3.80;;;;;;;19.30;60.44;99565.71;105492;1259;64112;-52
2023/06/28 04:28:12;;;;;;;7.40;4.10;;;;;;;19.37;60.49;99562.79;105133;1257;60089;-51
2023/06/28 04:30:39;;;;;;;6.50;4.10;;;;;;;19.44;60.42;99557.69;105543;1255;63797;-52
2023/06/28 04:33:08;;;;;;;7.00;3.70;;;;;;;19.53;59.98;99554.01;105401;1255;59675;-53
2023/06/28 04:35:35;;;;;;;6.20;3.70;;;;;;;19.63;59.38;99559.81;105698;1257;59666;-52
2023/06/28 04:38:04;;;;;;;6.20;3.80;;;;;;;19.77;59.08;99553.77;105713;1254;65391;-52
2023/06/28 04:40:32;;;;;;;7.00;3.50;;;;;;;19.85;58.14;99555.82;105623;1254;61756;-53
2023/06/28 04:43:00;;;;;;;5.30;3.30;;;;;;;19.92;58.08;99555.82;105445;1260;63722;-52
2023/06/28 04:45:36;;;;;;;6.20;3.30;;;;;;;20.00;58.21;99558.75;105403;1254;59784;-52
2023/06/28 04:48:08;;;;;;;5.90;3.40;;;;;;;20.07;57.25;99569.02;105340;1254;59797;-54
2023/06/28 04:50:36;;;;;;;7.00;3.40;;;;;;;20.06;56.76;99578.77;105324;1259;64131;-51
2023/06/28 04:53:04;;;;;;;6.40;3.30;;;;;;;20.01;56.79;99572.10;105231;1258;61352;-53
2023/06/28 04:55:34;;;;;;;6.40;3.60;;;;;;;19.96;57.02;99568.45;105240;1255;63743;-52
2023/06/28 04:58:03;;;;;;;6.30;3.50;;;;;;;19.93;57.38;99570.33;105461;1260;59650;-54
2023/06/28 05:00:31;;;;;;;8.20;3.60;;;;;;;19.91;57.24;99579.48;105267;1255;60101;-53
2023/06/28 05:03:02;;;;;;;6.50;3.20;;;;;;;19.92;56.80;99580.35;105102;1254;64151;-52
2023/06/28 05:05:29;;;;;;;6.20;2.80;;;;;;;19.94;56.60;99582.40;105262;1254;61296;-52
2023/06/28 05:07:59;;;;;;;6.30;2.60;;;;;;;19.93;56.14;99587.90;105270;1254;63739;-52
2023/06/28 05:10:27;;;;;;;9.00;2.80;;;;;;;19.90;55.98;99585.48;105382;1254;60098;-53
2023/06/28 05:12:55;;;;;;;7.30;3.30;;;;;;;19.87;56.08;99581.78;105320;1255;59672;-51
2023/06/28 05:15:24;;;;;;;7.20;2.90;;;;;;;19.84;56.10;99583.34;105310;1257;64141;-56
2023/06/28 05:17:52;;;;;;;6.30;3.10;;;;;;;19.79;56.03;99578.46;105298;1257;61336;-53
2023/06/28 05:20:19;;;;;;;6.60;3.30;;;;;;;19.70;56.36;99581.48;105292;1260;63821;-51
2023/06/28 05:22:48;;;;;;;5.50;2.60;;;;;;;19.76;55.91;99577.98;105193;1254;59675;-52
2023/06/28 05:25:16;;;;;;;6.30;3.00;;;;;;;19.89;55.75;99578.70;105586;1258;59848;-51
2023/06/28 05:27:44;;;;;;;5.10;2.40;;;;;;;19.99;55.50;99573.38;105408;1255;75201;-56
2023/06/28 05:30:11;;;;;;;4.70;2.20;;;;;;;20.08;55.41;99573.83;105265;1258;61734;-69
2023/06/28 05:32:39;;;;;;;4.90;2.60;;;;;;;20.14;55.60;99570.10;105431;1260;64271;-65
2023/06/28 05:35:07;;;;;;;5.20;2.50;;;;;;;20.22;55.31;99573.34;105178;1260;59710;-58
2023/06/28 05:37:36;;;;;;;6.40;3.00;;;;;;;20.29;54.13;99576.42;105447;1254;59848;-59
2023/06/28 05:40:04;;;;;;;6.20;2.70;;;;;;;20.30;53.81;99575.19;106354;1250;63109;-63
2023/06/28 05:42:32;;;;;;;8.60;2.90;;;;;;;20.29;53.81;99581.23;105691;1252;61602;-58
2023/06/28 05:44:59;;;;;;;5.40;2.60;;;;;;;20.26;53.55;99577.00;105555;1251;64289;-59
2023/06/28 05:47:27;;;;;;;6.10;2.90;;;;;;;20.13;53.69;99589.04;105388;1251;60926;-60
2023/06/28 05:49:54;;;;;;;6.40;2.60;;;;;;;20.03;53.95;99579.91;105569;1251;59644;-66
2023/06/28 05:52:22;;;;;;;5.00;2.50;;;;;;;20.03;54.09;99572.95;105672;1256;64084;-63
2023/06/28 05:54:49;;;;;;;8.50;2.60;;;;;;;20.06;54.13;99577.64;105493;1256;60149;-58
2023/06/28 05:57:17;;;;;;;4.40;2.00;;;;;;;20.07;53.93;99580.15;105538;1251;63748;-56
2023/06/28 05:59:44;;;;;;;6.80;2.40;;;;;;;20.10;53.48;99577.70;105372;1251;59587;-58
2023/06/28 06:02:12;;;;;;;7.10;1.90;;;;;;;20.15;53.35;99584.93;105554;1251;59736;-58
2023/06/28 06:04:39;;;;;;;6.30;2.30;;;;;;;20.26;52.89;99584.73;109271;1251;64089;-57
2023/06/28 06:07:07;;;;;;;8.00;1.90;;;;;;;20.35;52.14;99583.02;109424;1250;61510;-58
2023/06/28 06:09:34;;;;;;;4.30;1.70;;;;;;;20.40;51.59;99586.03;109326;1251;63687;-56
2023/06/28 06:12:02;;;;;;;4.80;1.80;;;;;;;20.46;51.52;99588.59;109354;1255;57813;-58
2023/06/28 06:14:30;;;;;;;7.60;1.90;;;;;;;20.51;51.00;99589.65;108722;1256;57470;-59
2023/06/28 06:16:57;;;;;;;4.60;2.20;;;;;;;20.52;50.40;99589.68;105490;1251;64081;-63
2023/06/28 06:19:24;;;;;;;10.50;2.30;;;;;;;20.50;50.54;99584.71;105497;1252;61339;-57
2023/06/28 06:21:52;;;;;;;4.80;1.90;;;;;;;20.50;50.60;99593.34;105728;1252;63716;-65
2023/06/28 06:24:20;;;;;;;5.70;2.40;;;;;;;20.50;51.01;99598.15;105408;1251;60590;-61
2023/06/28 06:26:47;;;;;;;6.50;1.90;;;;;;;20.50;51.04;99593.02;109305;1250;59173;-60
2023/06/28 06:29:15;;;;;;;6.20;2.50;;;;;;;20.52;51.12;99597.54;106919;1254;64896;-61
2023/06/28 06:31:42;;;;;;;10.80;2.00;;;;;;;20.56;50.69;99594.86;105915;1256;61773;-57
2023/06/28 06:34:10;;;;;;;4.50;2.20;;;;;;;20.60;50.67;99583.80;105475;1257;63834;-59
2023/06/28 06:36:37;;;;;;;4.10;1.70;;;;;;;20.69;50.63;99588.33;105450;1251;60359;-60
2023/06/28 06:39:05;;;;;;;4.70;1.90;;;;;;;20.84;50.11;99592.63;105445;1251;60635;-58
2023/06/28 06:41:32;;;;;;;5.00;2.00;;;;;;;20.88;49.76;99600.67;105375;1251;64876;-57
2023/06/28 06:44:00;;;;;;;5.90;2.00;;;;;;;20.86;49.40;99602.61;105128;1257;61799;-57
2023/06/28 06:46:28;;;;;;;4.40;1.90;;;;;;;20.82;49.36;99602.25;105259;1256;63720;-59
2023/06/28 06:48:55;;;;;;;5.00;1.80;;;;;;;20.77;48.68;99607.60;105245;1251;60499;-63
2023/06/28 06:51:23;;;;;;;3.60;1.50;;;;;;;20.75;47.92;99611.93;105329;1251;60530;-64
2023/06/28 06:53:50;;;;;;;4.60;1.70;;;;;;;20.77;47.67;99608.09;109429;1251;64931;-57
2023/06/28 06:56:22;;;;;;;4.90;1.70;;;;;;;20.85;47.83;99612.13;108960;1251;61404;-68
2023/06/28 06:58:49;;;;;;;5.00;1.80;;;;;;;20.93;47.32;99615.14;106008;1253;63888;-61
2023/06/28 07:01:17;;;;;;;3.40;1.40;;;;;;;21.04;46.96;99623.80;105466;1257;60639;-61
2023/06/28 07:03:44;;;;;;;3.90;1.80;;;;;;;21.13;47.27;99629.64;105632;1257;60472;-64
2023/06/28 07:06:12;;;;;;;5.30;1.60;;;;;;;21.21;46.43;99645.06;105593;1257;65363;-62
2023/06/28 07:08:39;;;;;;;6.80;2.10;;;;;;;21.25;46.63;99630.02;105695;1254;61348;-59
2023/06/28 07:11:07;;;;;;;6.20;2.00;;;;;;;21.31;47.28;99634.79;105646;1251;63739;-62
2023/06/28 07:13:34;;;;;;;3.80;1.50;;;;;;;21.31;46.65;99647.50;105426;1256;60421;-60
2023/06/28 07:16:02;;;;;;;6.60;2.10;;;;;;;21.25;46.69;99653.70;105649;1257;60431;-60
2023/06/28 07:18:30;;;;;;;8.10;1.80;;;;;;;21.24;46.77;99655.52;105609;1250;65033;-61
2023/06/28 07:20:57;;;;;;;5.90;2.10;;;;;;;21.28;46.35;99654.42;105672;1251;61431;-60
2023/06/28 07:23:25;;;;;;;4.80;1.50;;;;;;;21.36;46.19;99646.90;105540;1251;63749;-60
2023/06/28 07:25:53;;;;;;;3.90;1.30;;;;;;;21.42;46.13;99647.75;105619;1255;60712;-59
2023/06/28 07:28:21;;;;;;;4.20;1.60;;;;;;;21.43;46.23;99646.34;105723;1251;60427;-58
2023/06/28 07:30:53;;;;;;;3.60;1.60;;;;;;;21.40;46.31;99654.02;105791;1251;65092;-58
2023/06/28 07:33:22;;;;;;;3.70;1.50;;;;;;;21.36;46.50;99643.33;106105;1251;61687;-56
2023/06/28 07:35:50;;;;;;;3.60;1.30;;;;;;;21.36;46.13;99644.56;105547;1257;63775;-56
2023/06/28 07:38:21;;;;;;;3.90;1.50;;;;;;;21.44;45.97;99645.48;106248;1256;61720;-57
2023/06/28 07:40:49;;;;;;;5.40;1.80;;;;;;;21.53;45.74;99649.67;105752;1258;59474;-59
2023/06/28 07:43:18;;;;;;;4.50;1.50;;;;;;;21.60;45.85;99644.13;105454;1251;65010;-59
2023/06/28 07:45:45;;;;;;;4.30;1.70;;;;;;;21.70;45.56;99645.97;106129;1255;60427;-59
2023/06/28 07:48:13;;;;;;;3.50;1.50;;;;;;;21.77;45.32;99648.41;105603;1255;63781;-61
2023/06/28 07:50:42;;;;;;;5.80;2.00;;;;;;;21.86;45.59;99649.72;105808;1257;60481;-62
2023/06/28 07:53:10;;;;;;;3.30;1.50;;;;;;;21.89;45.00;99653.02;105745;1257;60517;-67
2023/06/28 07:55:37;;;;;;;4.50;1.50;;;;;;;21.87;44.99;99643.81;105515;1256;65004;-61
2023/06/28 07:58:05;;;;;;;3.80;1.50;;;;;;;21.90;44.44;99656.11;105690;1256;61418;-61
2023/06/28 08:00:33;;;;;;;3.80;1.60;;;;;;;21.98;44.18;99645.16;105656;1257;62556;-63
2023/06/28 08:03:01;;;;;;;3.50;1.20;;;;;;;22.08;43.85;99653.73;105585;1257;60440;-63
2023/06/28 08:05:29;;;;;;;4.50;1.50;;;;;;;22.15;43.79;99645.24;105683;1256;60453;-60
2023/06/28 08:07:56;;;;;;;6.00;1.70;;;;;;;22.23;43.66;99655.74;105478;1252;63805;-56
2023/06/28 08:10:25;;;;;;;4.50;1.30;;;;;;;22.30;44.06;99653.91;105661;1255;61392;-62
2023/06/28 08:12:55;;;;;;;7.10;1.60;;;;;;;22.31;43.56;99645.20;105742;1257;62470;-59
2023/06/28 08:15:22;;;;;;;15.60;2.30;;;;;;;22.29;42.77;99651.61;105680;1256;60407;-59
2023/06/28 08:17:50;;;;;;;3.30;1.30;;;;;;;22.32;43.29;99655.05;105633;1251;60409;-62
2023/06/28 08:20:18;;;;;;;4.90;1.40;;;;;;;22.40;42.89;99666.70;105644;1257;64897;-62
2023/06/28 08:22:45;;;;;;;4.60;1.70;;;;;;;22.45;42.03;99659.24;105688;1251;61446;-60
2023/06/28 08:25:13;;;;;;;3.30;1.40;;;;;;;22.48;42.15;99648.70;105548;1254;62463;-60
2023/06/28 08:27:40;;;;;;;4.20;1.30;;;;;;;22.47;42.00;99652.20;105676;1256;60473;-59
2023/06/28 08:30:08;;;;;;;4.50;1.50;;;;;;;22.41;41.69;99661.91;105734;1256;60466;-60
2023/06/28 08:32:36;;;;;;;3.10;1.10;;;;;;;22.36;41.40;99656.59;105740;1257;64891;-60
2023/06/28 08:35:04;;;;;;;7.90;1.60;;;;;;;22.36;41.74;99647.80;105479;1257;61392;-59
2023/06/28 08:37:34;;;;;;;3.80;1.30;;;;;;;22.42;41.09;99650.03;106490;1256;63736;-58
2023/06/28 08:40:03;;;;;;;6.10;1.60;;;;;;;22.46;39.56;99661.09;105544;1257;60543;-59
2023/06/28 08:42:33;;;;;;;5.90;1.30;;;;;;;22.44;39.47;99646.66;105776;1257;60352;-58
2023/06/28 08:45:02;;;;;;;5.70;1.40;;;;;;;22.48;40.09;99646.92;105492;1257;63666;-59
2023/06/28 08:47:30;;;;;;;4.50;1.20;;;;;;;22.56;40.70;99641.09;105764;1257;63450;-60
2023/06/28 08:49:58;;;;;;;4.60;1.40;;;;;;;22.68;39.79;99637.97;105502;1257;62498;-60
2023/06/28 08:52:26;;;;;;;3.70;1.20;;;;;;;22.78;39.81;99643.61;105641;1257;60555;-57
2023/06/28 08:54:55;;;;;;;4.40;1.40;;;;;;;22.79;39.99;99644.13;105552;1252;60412;-59
2023/06/28 08:57:23;;;;;;;3.20;1.10;;;;;;;22.86;39.80;99642.42;105692;1252;64906;-59
2023/06/28 08:59:50;;;;;;;4.70;1.30;;;;;;;22.92;40.16;99634.39;105419;1263;60513;-56
2023/06/28 09:02:18;;;;;;;3.70;1.30;;;;;;;23.01;40.62;99643.67;105461;1257;63736;-63
2023/06/28 09:04:47;;;;;;;5.20;1.30;;;;;;;23.07;39.59;99650.44;105598;1256;62240;-60
2023/06/28 09:07:15;;;;;;;3.30;1.30;;;;;;;23.10;39.36;99632.67;105593;1256;60348;-59
2023/06/28 09:09:43;;;;;;;2.80;1.10;;;;;;;23.19;39.82;99627.98;105960;1256;64941;-63
2023/06/28 09:12:11;;;;;;;3.50;1.30;;;;;;;23.30;39.34;99632.81;105370;1257;61388;-59
2023/06/28 09:14:39;;;;;;;3.30;1.30;;;;;;;23.31;38.23;99635.27;105526;1257;63728;-67
2023/06/28 09:17:06;;;;;;;5.70;1.60;;;;;;;23.26;38.94;99635.10;105570;1257;60520;-63
2023/06/28 09:19:35;;;;;;;3.20;1.00;;;;;;;23.24;38.47;99627.92;105637;1260;60417;-64
2023/06/28 09:22:03;;;;;;;3.70;1.10;;;;;;;23.21;37.41;99629.27;105652;1257;64904;-62
2023/06/28 09:24:35;;;;;;;3.30;1.30;;;;;;;23.12;37.08;99626.16;105609;1257;61445;-60
2023/06/28 09:27:04;;;;;;;3.90;1.30;;;;;;;23.05;37.65;99629.59;105730;1253;63695;-65
2023/06/28 09:29:31;;;;;;;3.40;1.10;;;;;;;23.07;37.89;99628.98;105672;1257;60417;-62
2023/06/28 09:32:00;;;;;;;5.70;1.30;;;;;;;23.13;37.66;99638.98;105511;1251;60643;-57
2023/06/28 09:34:28;;;;;;;3.10;1.00;;;;;;;23.20;37.19;99638.16;105878;1256;63653;-58
2023/06/28 09:36:56;;;;;;;3.00;1.10;;;;;;;23.20;36.85;99628.50;105609;1255;61344;-61
2023/06/28 09:39:24;;;;;;;3.70;1.40;;;;;;;23.16;36.77;99626.20;105464;1251;63765;-61
2023/06/28 09:41:53;;;;;;;2.20;0.90;;;;;;;23.14;37.01;99622.64;105617;1256;60524;-59
2023/06/28 09:44:28;;;;;;;3.70;1.40;;;;;;;23.13;37.22;99626.33;105770;1257;60314;-59
2023/06/28 09:47:00;;;;;;;3.50;1.10;;;;;;;23.16;37.59;99624.54;105728;1255;65053;-65
2023/06/28 09:49:28;;;;;;;4.10;1.40;;;;;;;23.26;37.18;99629.59;105645;1251;61485;-68
2023/06/28 09:52:02;;;;;;;3.50;1.20;;;;;;;23.32;36.40;99624.94;105530;1255;62474;-56
2023/06/28 09:54:44;;;;;;;5.30;1.40;;;;;;;23.33;36.30;99620.97;105841;1257;60466;-63
2023/06/28 09:57:12;;;;;;;4.80;1.30;;;;;;;23.37;37.18;99634.38;105483;1257;60293;-59
2023/06/28 09:59:40;;;;;;;7.50;1.40;;;;;;;23.51;37.52;99628.09;105549;1254;63699;-57
2023/06/28 10:02:08;;;;;;;4.90;1.50;;;;;;;23.69;35.26;99640.45;105346;1260;61377;-59
2023/06/28 10:04:39;;;;;;;4.80;1.30;;;;;;;23.81;34.96;99644.06;105582;1255;63691;-56
2023/06/28 10:07:07;;;;;;;6.80;1.80;;;;;;;23.88;34.70;99659.37;105795;1258;59576;-57
2023/06/28 10:09:39;;;;;;;3.60;1.20;;;;;;;23.88;34.91;99657.16;105655;1255;60401;-59
2023/06/28 10:12:16;;;;;;;5.70;1.20;;;;;;;23.84;34.78;99655.20;105953;1265;64925;-62
2023/06/28 10:15:09;;;;;;;3.10;1.10;;;;;;;23.76;35.29;99652.44;106078;1256;61377;-59
2023/06/28 10:17:37;;;;;;;3.40;1.30;;;;;;;23.71;35.99;99653.49;105605;1259;63927;-62
2023/06/28 10:20:06;;;;;;;2.80;1.00;;;;;;;23.71;36.17;99653.83;105425;1261;60537;-58
2023/06/28 10:22:34;;;;;;;6.90;1.30;;;;;;;23.70;35.82;99651.92;105651;1254;61069;-59
2023/06/28 10:25:04;;;;;;;4.80;1.50;;;;;;;23.65;35.32;99652.70;105610;1257;65423;-56
2023/06/28 10:27:33;;;;;;;4.70;1.20;;;;;;;23.64;35.79;99645.73;105640;1258;61384;-56
2023/06/28 10:30:02;;;;;;;7.20;1.30;;;;;;;23.66;36.15;99642.28;106078;1256;63793;-60
2023/06/28 10:32:30;;;;;;;4.90;1.30;;;;;;;23.63;35.64;99648.02;105656;1254;62058;-59
2023/06/28 10:34:57;;;;;;;5.80;1.30;;;;;;;23.63;36.21;99637.49;106408;1256;60351;-58
2023/06/28 10:37:25;;;;;;;4.30;1.10;;;;;;;23.69;36.13;99632.33;105548;1258;64972;-58
2023/06/28 10:39:52;;;;;;;3.60;1.30;;;;;;;23.78;35.71;99633.04;105497;1251;61306;-54
2023/06/28 10:42:20;;;;;;;7.60;1.60;;;;;;;23.88;35.24;99632.99;105673;1257;63756;-60
2023/06/28 10:44:55;;;;;;;4.60;1.20;;;;;;;23.97;34.85;99636.60;107794;1251;60516;-60
2023/06/28 10:47:23;;;;;;;4.20;1.30;;;;;;;24.05;35.22;99630.01;105588;1256;60277;-64
2023/06/28 10:50:15;;;;;;;4.30;1.30;;;;;;;24.12;34.90;99627.17;105492;1256;64153;-61
2023/06/28 10:52:49;;;;;;;3.80;1.10;;;;;;;24.27;34.86;99624.44;109432;1251;61532;-58
2023/06/28 10:55:21;;;;;;;3.10;1.20;;;;;;;24.45;33.99;99615.99;107034;1254;62593;-58
2023/06/28 10:58:08;;;;;;;3.60;1.10;;;;;;;24.57;32.86;99618.29;105472;1255;60440;-55
2023/06/28 11:00:46;;;;;;;7.50;1.20;;;;;;;24.59;32.65;99624.30;105518;1255;60443;-57
2023/06/28 11:03:14;;;;;;;5.00;1.20;;;;;;;24.48;32.55;99639.36;105598;1257;64972;-61
2023/06/28 11:05:45;;;;;;;3.60;1.30;;;;;;;24.29;32.76;99639.01;107781;1251;61356;-55
2023/06/28 11:08:16;;;;;;;3.60;1.00;;;;;;;24.14;33.04;99631.59;105664;1251;63669;-58
2023/06/28 11:10:45;;;;;;;7.10;1.20;;;;;;;24.04;33.39;99629.12;105493;1257;60495;-57
2023/06/28 11:13:14;;;;;;;4.90;1.20;;;;;;;23.95;33.58;99615.70;105686;1257;60440;-57
2023/06/28 11:15:44;;;;;;;3.20;1.10;;;;;;;23.92;33.89;99614.13;105649;1251;64813;-59
2023/06/28 11:18:16;;;;;;;3.30;0.90;;;;;;;23.93;34.12;99614.79;105651;1251;61419;-55
2023/06/28 11:20:51;;;;;;;3.00;1.10;;;;;;;23.95;34.39;99611.65;105371;1254;62512;-57
2023/06/28 11:23:42;;;;;;;3.40;1.00;;;;;;;24.00;34.39;99617.48;108007;1251;60445;-60
2023/06/28 11:26:30;;;;;;;3.90;1.20;;;;;;;24.08;34.35;99615.16;105694;1251;60444;-58
2023/06/28 11:28:58;;;;;;;8.40;1.80;;;;;;;24.21;34.30;99612.90;105531;1257;64931;-62
2023/06/28 11:31:39;;;;;;;6.00;1.40;;;;;;;24.36;34.23;99606.05;105595;1251;61372;-55
2023/06/28 11:34:10;;;;;;;4.10;1.10;;;;;;;24.52;33.56;99611.21;105661;1261;63803;-57